Time;durP1;ratioP1;P1;durP2;ratioP2;P2;SDS_P1;SDS_P2;PMS_P1;PMS_P2;Temp;Humidity;BMP_temperature;BMP_pressure;BME280_temperature;BME280_humidity;BME280_pressure;Samples;Min_cycle;Max_cycle;Signal;HPM_P1;HPM_P2
2022/03/22 00:00:31;;;;;;;2.63;1.13;;;8.40;99.90;;;;;;5026876;28;20185;-84
2022/03/22 00:02:57;;;;;;;1.17;0.87;;;8.50;99.90;;;;;;5026167;28;20208;-83
2022/03/22 00:05:23;;;;;;;0.60;0.60;;;8.50;99.90;;;;;;5024593;28;20193;-83
2022/03/22 00:07:50;;;;;;;0.73;0.73;;;8.60;99.90;;;;;;5024454;28;20244;-83
2022/03/22 00:10:15;;;;;;;0.80;0.77;;;8.60;99.90;;;;;;5022205;28;20205;-83
2022/03/22 00:12:42;;;;;;;0.50;0.50;;;8.60;99.90;;;;;;5023244;28;20209;-84
2022/03/22 00:15:09;;;;;;;0.43;0.43;;;8.60;99.90;;;;;;5023786;28;20200;-84
2022/03/22 00:17:36;;;;;;;0.63;0.60;;;8.60;99.90;;;;;;5024162;28;20697;-83
2022/03/22 00:20:02;;;;;;;1.00;0.87;;;8.60;99.90;;;;;;5022391;28;20279;-84
2022/03/22 00:22:28;;;;;;;1.10;0.60;;;8.60;99.90;;;;;;5026175;28;20217;-84
2022/03/22 00:24:54;;;;;;;2.03;1.53;;;8.50;99.90;;;;;;5024186;28;20561;-84
2022/03/22 00:27:20;;;;;;;1.13;1.03;;;8.50;99.90;;;;;;5023138;28;20728;-84
2022/03/22 00:29:46;;;;;;;1.07;1.07;;;8.40;99.90;;;;;;5023178;28;20193;-84
2022/03/22 00:32:12;;;;;;;1.20;1.10;;;8.30;99.90;;;;;;5024172;28;20550;-84
2022/03/22 00:34:44;;;;;;;1.80;1.10;;;8.40;99.90;;;;;;5023666;28;20212;-83
2022/03/22 00:37:13;;;;;;;1.53;1.40;;;8.30;99.90;;;;;;5022554;28;20181;-84
2022/03/22 00:39:39;;;;;;;2.00;1.33;;;8.30;99.90;;;;;;5022917;28;20184;-84
2022/03/22 00:42:05;;;;;;;0.70;0.70;;;8.20;99.90;;;;;;5023934;28;20192;-84
2022/03/22 00:44:30;;;;;;;0.50;0.50;;;8.20;99.90;;;;;;5022461;28;20219;-84
2022/03/22 00:46:56;;;;;;;1.50;1.03;;;8.10;99.90;;;;;;5023700;28;20183;-84
2022/03/22 00:49:21;;;;;;;0.60;0.60;;;8.10;99.90;;;;;;5023556;28;20193;-84
2022/03/22 00:51:47;;;;;;;0.57;0.50;;;8.00;99.90;;;;;;5024468;28;20204;-84
2022/03/22 00:54:13;;;;;;;0.60;0.60;;;8.00;99.90;;;;;;5020554;28;20212;-84
2022/03/22 00:56:39;;;;;;;0.60;0.60;;;8.00;99.90;;;;;;5023479;28;20192;-84
2022/03/22 01:01:49;;;;;;;0.77;0.53;;;7.90;99.90;;;;;;5023027;28;20196;-84
2022/03/22 01:04:14;;;;;;;0.27;0.27;;;8.00;99.90;;;;;;5023422;28;20692;-84
2022/03/22 01:06:40;;;;;;;0.50;0.50;;;8.00;99.90;;;;;;5023485;28;20535;-84
2022/03/22 01:09:05;;;;;;;0.33;0.33;;;7.90;99.90;;;;;;5024294;28;20244;-84
2022/03/22 01:11:31;;;;;;;1.13;1.03;;;7.70;99.90;;;;;;5024780;28;20345;-84
2022/03/22 01:13:58;;;;;;;1.37;0.80;;;7.60;99.90;;;;;;5023451;28;20227;-84
2022/03/22 01:16:23;;;;;;;0.60;0.47;;;7.50;99.90;;;;;;5025397;28;20650;-84
2022/03/22 01:18:49;;;;;;;0.40;0.40;;;7.50;99.90;;;;;;5023243;28;20263;-83
2022/03/22 01:21:14;;;;;;;0.83;0.23;;;7.40;99.90;;;;;;5023979;28;20538;-84
2022/03/22 01:23:40;;;;;;;1.37;1.27;;;7.40;99.90;;;;;;5024336;28;20261;-84
2022/03/22 01:26:06;;;;;;;0.50;0.30;;;7.40;99.90;;;;;;5024857;28;20214;-84
2022/03/22 01:28:31;;;;;;;2.07;0.90;;;7.40;99.90;;;;;;5023710;28;20720;-84
2022/03/22 01:30:57;;;;;;;0.57;0.57;;;7.30;99.90;;;;;;5023215;28;20206;-84
2022/03/22 01:33:23;;;;;;;0.50;0.50;;;7.30;99.90;;;;;;5021864;28;20216;-84
2022/03/22 01:35:48;;;;;;;0.30;0.30;;;7.20;99.90;;;;;;5023443;28;20183;-84
2022/03/22 01:38:14;;;;;;;0.87;0.67;;;7.10;99.90;;;;;;5021634;28;20183;-84
2022/03/22 01:40:39;;;;;;;0.63;0.63;;;7.00;99.90;;;;;;5022145;28;20188;-84
2022/03/22 01:43:05;;;;;;;0.60;0.60;;;7.10;99.90;;;;;;5022581;28;20338;-84
2022/03/22 01:45:31;;;;;;;0.27;0.27;;;7.00;99.90;;;;;;5021826;28;20216;-83
2022/03/22 01:47:59;;;;;;;1.53;1.13;;;7.00;99.90;;;;;;5022779;28;20720;-84
2022/03/22 01:50:25;;;;;;;0.80;0.63;;;6.90;99.90;;;;;;5023890;28;20204;-84
2022/03/22 01:52:51;;;;;;;0.47;0.47;;;6.90;99.90;;;;;;5022224;28;20234;-84
2022/03/22 01:55:19;;;;;;;1.27;0.80;;;6.80;99.90;;;;;;5023646;28;20537;-84
2022/03/22 01:57:46;;;;;;;1.10;0.63;;;6.80;99.90;;;;;;5020990;28;20472;-84
2022/03/22 02:00:17;;;;;;;1.13;0.50;;;6.80;99.90;;;;;;5023801;28;20664;-84
2022/03/22 02:08:16;;;;;;;0.63;0.63;;;6.80;99.90;;;;;;5023757;28;20232;-84
2022/03/22 02:10:43;;;;;;;0.93;0.93;;;6.80;99.90;;;;;;5022632;28;20211;-84
2022/03/22 02:13:09;;;;;;;1.90;0.60;;;6.70;99.90;;;;;;5022377;28;20807;-83
2022/03/22 02:15:35;;;;;;;1.13;0.83;;;6.70;99.90;;;;;;5020748;28;20999;-84
2022/03/22 02:18:00;;;;;;;0.50;0.43;;;6.70;99.90;;;;;;5023914;28;20182;-84
2022/03/22 02:20:27;;;;;;;0.80;0.80;;;6.60;99.90;;;;;;5023523;28;20552;-84
2022/03/22 02:23:02;;;;;;;1.10;1.10;;;6.70;99.90;;;;;;5021401;28;20209;-84
2022/03/22 02:25:28;;;;;;;0.80;0.80;;;6.60;99.90;;;;;;5019855;28;20209;-84
2022/03/22 02:27:54;;;;;;;1.33;1.23;;;6.50;99.90;;;;;;5022628;28;20644;-84
2022/03/22 02:30:20;;;;;;;1.67;1.57;;;6.50;99.90;;;;;;5020699;28;20206;-84
2022/03/22 02:32:50;;;;;;;0.40;0.40;;;6.40;99.90;;;;;;5022459;28;20217;-83
2022/03/22 02:35:16;;;;;;;0.57;0.37;;;6.30;99.90;;;;;;5021674;28;20183;-84
2022/03/22 02:37:42;;;;;;;1.60;0.40;;;6.30;99.90;;;;;;5022298;28;20197;-84
2022/03/22 02:40:08;;;;;;;1.03;1.00;;;6.30;99.90;;;;;;5020848;28;20194;-84
2022/03/22 02:42:34;;;;;;;1.20;0.73;;;6.30;99.90;;;;;;5022764;28;20219;-84
2022/03/22 02:44:59;;;;;;;1.33;0.83;;;6.30;99.90;;;;;;5022464;28;20213;-83
2022/03/22 02:47:25;;;;;;;0.53;0.53;;;6.30;99.90;;;;;;5023869;28;20656;-84
2022/03/22 02:49:50;;;;;;;1.97;1.87;;;6.30;99.90;;;;;;5024536;28;20201;-83
2022/03/22 02:52:16;;;;;;;0.63;0.20;;;6.20;99.90;;;;;;5025711;28;20671;-84
2022/03/22 02:54:41;;;;;;;0.70;0.70;;;6.10;99.90;;;;;;5026668;28;21120;-84
2022/03/22 02:57:07;;;;;;;0.67;0.67;;;6.00;99.90;;;;;;5026940;28;20190;-84
2022/03/22 02:59:32;;;;;;;0.40;0.40;;;6.00;99.90;;;;;;5025649;28;21336;-84
2022/03/22 03:01:58;;;;;;;1.17;0.80;;;6.00;99.90;;;;;;5024972;28;20557;-83
2022/03/22 03:04:24;;;;;;;0.40;0.40;;;6.00;99.90;;;;;;5025660;28;20209;-84
2022/03/22 03:06:49;;;;;;;1.03;0.60;;;5.90;99.90;;;;;;5025199;28;20202;-84
2022/03/22 03:09:15;;;;;;;0.73;0.60;;;5.70;99.90;;;;;;5024902;28;20719;-84
2022/03/22 03:11:40;;;;;;;1.03;0.90;;;5.60;99.90;;;;;;5026006;28;20606;-83
2022/03/22 03:16:50;;;;;;;0.53;0.53;;;5.70;99.90;;;;;;5025244;28;20232;-83
2022/03/22 03:19:16;;;;;;;0.10;0.10;;;5.70;99.90;;;;;;5025185;28;20273;-82
2022/03/22 03:21:41;;;;;;;0.53;0.43;;;5.80;99.90;;;;;;5023022;28;20222;-83
2022/03/22 03:24:07;;;;;;;0.30;0.30;;;5.80;99.90;;;;;;5024774;28;20232;-84
2022/03/22 03:26:32;;;;;;;0.33;0.33;;;5.80;99.90;;;;;;5024245;28;20327;-84
2022/03/22 03:28:58;;;;;;;0.63;0.50;;;5.80;99.90;;;;;;5026290;28;20178;-84
2022/03/22 03:31:23;;;;;;;0.60;0.60;;;5.80;99.90;;;;;;5024775;28;20214;-84
2022/03/22 03:33:49;;;;;;;0.60;0.50;;;5.70;99.90;;;;;;5025186;28;20249;-84
2022/03/22 03:36:15;;;;;;;0.53;0.53;;;5.60;99.90;;;;;;5025347;28;20548;-83
2022/03/22 03:38:43;;;;;;;2.07;0.77;;;5.40;99.90;;;;;;5024580;28;20198;-84
2022/03/22 03:43:55;;;;;;;0.93;0.90;;;5.40;99.90;;;;;;5025792;28;20256;-84
2022/03/22 03:49:06;;;;;;;3.93;0.70;;;5.30;99.90;;;;;;5026233;28;20197;-84
2022/03/22 03:51:33;;;;;;;0.40;0.40;;;5.20;99.90;;;;;;5026503;28;20257;-84
2022/03/22 03:53:59;;;;;;;1.87;0.53;;;5.30;99.90;;;;;;5024077;28;20233;-83
2022/03/22 03:56:24;;;;;;;0.43;0.43;;;5.40;99.90;;;;;;5024091;28;20221;-84
2022/03/22 03:58:51;;;;;;;2.23;0.30;;;5.40;99.90;;;;;;5031438;28;20212;-83
2022/03/22 04:01:16;;;;;;;0.87;0.77;;;5.40;99.90;;;;;;5024595;28;20187;-84
2022/03/22 04:03:42;;;;;;;0.33;0.33;;;5.50;99.90;;;;;;5016870;28;20214;-83
2022/03/22 04:06:07;;;;;;;0.43;0.43;;;5.60;99.90;;;;;;5015864;28;20206;-83
2022/03/22 04:08:33;;;;;;;0.33;0.33;;;5.60;99.90;;;;;;5020450;28;20186;-83
2022/03/22 04:10:59;;;;;;;0.70;0.50;;;5.60;99.90;;;;;;5020486;28;20210;-83
2022/03/22 04:13:24;;;;;;;0.50;0.50;;;5.60;99.90;;;;;;5024256;28;20201;-83
2022/03/22 04:15:50;;;;;;;0.50;0.50;;;5.50;99.90;;;;;;5024701;28;20278;-83
2022/03/22 04:18:15;;;;;;;0.60;0.60;;;5.30;99.90;;;;;;5024191;28;20174;-83
2022/03/22 04:20:41;;;;;;;0.60;0.60;;;5.30;99.90;;;;;;5021291;28;20520;-83
2022/03/22 04:23:08;;;;;;;0.63;0.30;;;5.20;99.90;;;;;;5019194;28;20207;-84
2022/03/22 04:25:34;;;;;;;0.47;0.47;;;5.30;99.90;;;;;;5021930;28;20705;-83
2022/03/22 04:33:28;;;;;;;0.67;0.43;;;5.00;99.90;;;;;;5023640;28;20213;-83
2022/03/22 04:35:53;;;;;;;1.03;1.03;;;5.00;99.90;;;;;;5024590;28;20183;-83
2022/03/22 04:38:19;;;;;;;0.43;0.43;;;5.10;99.90;;;;;;5020553;28;20888;-83
2022/03/22 04:40:45;;;;;;;1.83;1.00;;;5.10;99.90;;;;;;5024167;28;20692;-83
2022/03/22 04:43:10;;;;;;;0.63;0.63;;;5.00;99.90;;;;;;5023602;28;20194;-83
2022/03/22 04:45:36;;;;;;;0.20;0.20;;;5.00;99.90;;;;;;5025071;28;20558;-83
2022/03/22 04:48:02;;;;;;;0.83;0.73;;;4.90;99.90;;;;;;5023961;28;20186;-83
2022/03/22 04:50:27;;;;;;;0.50;0.50;;;4.90;99.90;;;;;;5020193;28;20217;-83
2022/03/22 04:58:28;;;;;;;0.30;0.30;;;4.90;99.90;;;;;;5019109;28;20554;-83
2022/03/22 05:00:54;;;;;;;0.20;0.20;;;4.80;99.90;;;;;;5021515;28;20186;-83
2022/03/22 05:03:20;;;;;;;0.20;0.20;;;4.90;99.90;;;;;;5020391;28;20263;-83
2022/03/22 05:08:29;;;;;;;0.50;0.50;;;5.00;99.90;;;;;;5024410;28;20312;-83
2022/03/22 05:10:55;;;;;;;0.20;0.20;;;4.90;99.90;;;;;;5021673;28;20297;-83
2022/03/22 05:13:21;;;;;;;0.77;0.77;;;4.90;99.90;;;;;;5017717;28;20233;-83
2022/03/22 05:15:47;;;;;;;0.23;0.23;;;4.90;99.90;;;;;;5023641;28;20193;-83
2022/03/22 05:18:13;;;;;;;0.30;0.30;;;4.80;99.90;;;;;;5022239;28;20197;-83
2022/03/22 05:20:39;;;;;;;0.37;0.37;;;4.80;99.90;;;;;;5024365;28;20570;-83
2022/03/22 05:23:04;;;;;;;0.73;0.43;;;4.90;99.90;;;;;;5023769;28;20217;-83
2022/03/22 05:25:31;;;;;;;0.30;0.30;;;4.90;99.90;;;;;;5022183;28;20190;-83
2022/03/22 05:28:02;;;;;;;0.37;0.33;;;5.00;99.90;;;;;;5021292;28;20287;-84
2022/03/22 05:30:28;;;;;;;0.30;0.30;;;5.00;99.90;;;;;;5020022;28;20203;-83
2022/03/22 05:32:54;;;;;;;0.30;0.30;;;5.10;99.90;;;;;;5021961;28;20232;-83
2022/03/22 05:35:20;;;;;;;0.50;0.30;;;5.10;99.90;;;;;;5022454;28;20186;-83
2022/03/22 05:37:45;;;;;;;0.47;0.47;;;5.10;99.90;;;;;;5022032;28;20317;-83
2022/03/22 05:40:11;;;;;;;0.73;0.73;;;5.10;99.90;;;;;;5021388;28;20196;-83
2022/03/22 05:42:39;;;;;;;0.43;0.43;;;5.10;99.90;;;;;;5020008;28;20191;-83
2022/03/22 05:45:07;;;;;;;0.43;0.43;;;5.20;99.90;;;;;;5020020;28;20195;-83
2022/03/22 05:47:32;;;;;;;1.87;0.80;;;5.30;99.90;;;;;;5018161;28;20197;-83
2022/03/22 05:49:58;;;;;;;2.00;0.77;;;5.30;99.90;;;;;;5019945;28;20186;-83
2022/03/22 05:52:23;;;;;;;0.83;0.40;;;5.30;99.90;;;;;;5020238;28;20677;-84
2022/03/22 05:54:49;;;;;;;0.80;0.80;;;5.30;99.90;;;;;;5020351;28;20206;-84
2022/03/22 05:57:14;;;;;;;0.30;0.30;;;5.40;99.90;;;;;;5021092;28;20193;-83
2022/03/22 05:59:40;;;;;;;0.60;0.60;;;5.50;99.90;;;;;;5020072;28;20186;-83
2022/03/22 06:02:05;;;;;;;0.30;0.30;;;5.60;99.90;;;;;;5022925;28;20190;-83
2022/03/22 06:04:32;;;;;;;0.73;0.73;;;5.50;99.90;;;;;;5020578;28;20724;-83
2022/03/22 06:07:00;;;;;;;0.90;0.53;;;5.60;99.90;;;;;;5020146;28;20228;-83
2022/03/22 06:09:26;;;;;;;0.47;0.47;;;5.50;99.90;;;;;;5019027;28;20204;-81
2022/03/22 06:11:51;;;;;;;1.10;1.07;;;5.40;99.90;;;;;;5019840;28;20214;-81
2022/03/22 06:14:17;;;;;;;2.27;0.90;;;5.10;99.90;;;;;;5021946;28;20637;-81
2022/03/22 06:16:42;;;;;;;0.80;0.73;;;5.10;99.90;;;;;;5021688;28;20190;-81
2022/03/22 06:19:08;;;;;;;6.00;1.23;;;5.10;99.90;;;;;;5019798;28;20603;-81
2022/03/22 06:21:34;;;;;;;0.70;0.70;;;5.10;99.90;;;;;;5020527;28;20279;-81
2022/03/22 06:23:59;;;;;;;0.23;0.23;;;5.10;99.90;;;;;;5025165;28;20220;-81
2022/03/22 06:26:25;;;;;;;0.53;0.53;;;5.20;99.90;;;;;;5019787;28;20187;-82
2022/03/22 06:28:51;;;;;;;2.10;0.70;;;5.20;99.90;;;;;;5023989;28;20193;-81
2022/03/22 06:31:16;;;;;;;0.77;0.47;;;5.30;99.90;;;;;;5024482;28;20585;-82
2022/03/22 06:33:42;;;;;;;0.80;0.80;;;5.40;99.90;;;;;;5024920;28;20206;-82
2022/03/22 06:36:08;;;;;;;1.13;0.90;;;5.50;99.90;;;;;;5027272;28;20205;-82
2022/03/22 06:38:35;;;;;;;1.90;1.80;;;5.50;99.90;;;;;;5026091;28;20182;-81
2022/03/22 06:41:01;;;;;;;5.83;2.00;;;5.50;99.90;;;;;;5028124;28;20244;-82
2022/03/22 06:43:26;;;;;;;0.57;0.50;;;5.60;99.90;;;;;;5023573;28;20216;-82
2022/03/22 06:45:52;;;;;;;0.70;0.50;;;5.70;99.90;;;;;;5025309;28;20191;-81
2022/03/22 06:48:18;;;;;;;0.87;0.87;;;5.80;99.90;;;;;;5025558;28;20206;-82
2022/03/22 06:50:47;;;;;;;1.13;0.57;;;6.00;99.90;;;;;;5027147;28;20237;-82
2022/03/22 06:53:12;;;;;;;1.90;0.90;;;6.30;99.90;;;;;;5028236;28;20217;-82
2022/03/22 06:55:38;;;;;;;0.70;0.70;;;6.50;99.90;;;;;;5026400;28;20645;-82
2022/03/22 06:58:06;;;;;;;1.13;0.90;;;6.70;99.90;;;;;;5024144;28;20190;-81
2022/03/22 07:00:31;;;;;;;0.80;0.80;;;7.00;99.90;;;;;;5027174;28;20186;-82
2022/03/22 07:02:58;;;;;;;0.30;0.30;;;7.20;99.90;;;;;;5028024;28;20717;-82
2022/03/22 07:05:24;;;;;;;0.90;0.70;;;7.30;99.90;;;;;;5025962;28;20206;-82
2022/03/22 07:07:50;;;;;;;1.23;0.70;;;7.40;99.90;;;;;;5027730;28;20278;-81
2022/03/22 07:10:18;;;;;;;3.20;0.80;;;7.60;99.90;;;;;;5025661;28;20210;-81
2022/03/22 07:12:56;;;;;;;0.80;0.63;;;7.70;99.90;;;;;;5022263;28;20253;-81
2022/03/22 07:15:29;;;;;;;0.40;0.40;;;7.90;99.90;;;;;;5024609;28;20181;-81
2022/03/22 07:17:58;;;;;;;0.70;0.70;;;8.20;99.90;;;;;;5022637;28;20182;-82
2022/03/22 07:20:24;;;;;;;0.87;0.83;;;8.40;99.90;;;;;;5020246;28;20194;-81
2022/03/22 07:22:50;;;;;;;1.77;1.00;;;8.70;99.90;;;;;;5021408;28;20207;-81
2022/03/22 07:25:16;;;;;;;0.70;0.70;;;9.00;99.90;;;;;;5021250;28;20185;-82
2022/03/22 07:27:43;;;;;;;2.43;1.17;;;9.30;99.90;;;;;;5023147;28;20189;-81
2022/03/22 07:30:12;;;;;;;0.67;0.53;;;9.60;99.90;;;;;;5024762;28;20193;-81
2022/03/22 07:32:38;;;;;;;0.83;0.50;;;9.90;99.90;;;;;;5024581;28;20178;-81
2022/03/22 07:35:05;;;;;;;1.77;1.67;;;10.20;99.90;;;;;;5025715;28;20623;-81
2022/03/22 07:37:32;;;;;;;1.70;1.43;;;10.30;99.90;;;;;;5024946;28;20556;-82
2022/03/22 07:39:58;;;;;;;1.00;1.00;;;10.40;99.90;;;;;;5024398;28;20602;-82
2022/03/22 07:42:27;;;;;;;1.10;1.10;;;10.60;99.90;;;;;;5024788;28;20182;-82
2022/03/22 07:44:57;;;;;;;1.60;1.50;;;10.50;99.90;;;;;;5020955;28;20510;-82
2022/03/22 07:47:24;;;;;;;0.97;0.87;;;10.70;99.90;;;;;;5021951;28;20178;-81
2022/03/22 07:55:18;;;;;;;1.57;0.83;;;11.30;99.90;;;;;;5022152;28;20232;-81
2022/03/22 07:57:44;;;;;;;1.50;0.93;;;11.20;99.90;;;;;;5023478;28;20591;-81
2022/03/22 08:00:10;;;;;;;1.03;0.93;;;11.00;99.90;;;;;;5023080;28;20241;-81
2022/03/22 08:02:37;;;;;;;1.57;0.77;;;11.20;99.90;;;;;;5021508;28;20269;-81
2022/03/22 08:05:06;;;;;;;1.87;1.70;;;11.50;99.90;;;;;;5023894;28;20198;-82
2022/03/22 08:07:32;;;;;;;1.23;1.10;;;11.80;99.90;;;;;;5022681;28;20804;-80
2022/03/22 08:09:57;;;;;;;1.13;1.00;;;12.00;99.90;;;;;;5000438;28;20187;-82
2022/03/22 08:12:23;;;;;;;2.20;1.20;;;12.10;99.90;;;;;;4999102;28;20202;-81
2022/03/22 08:14:49;;;;;;;0.70;0.57;;;12.20;99.90;;;;;;4998072;28;20273;-81
2022/03/22 08:17:14;;;;;;;1.00;1.00;;;12.50;99.90;;;;;;5012814;28;20317;-81
2022/03/22 08:19:40;;;;;;;1.73;1.63;;;12.10;99.90;;;;;;5022709;28;20194;-81
2022/03/22 08:22:05;;;;;;;1.90;1.70;;;11.80;99.90;;;;;;5019776;28;20190;-81
2022/03/22 08:24:31;;;;;;;1.60;1.07;;;11.60;99.90;;;;;;5020136;28;20213;-81
2022/03/22 08:26:57;;;;;;;0.73;0.73;;;11.90;99.90;;;;;;5019595;28;20281;-81
2022/03/22 08:29:25;;;;;;;3.10;2.00;;;12.10;99.90;;;;;;5018889;28;20187;-81
2022/03/22 08:31:52;;;;;;;2.17;0.93;;;12.30;99.90;;;;;;5020518;28;20215;-81
2022/03/22 08:34:17;;;;;;;1.63;1.10;;;12.00;99.90;;;;;;5020169;28;21084;-81
2022/03/22 08:36:43;;;;;;;1.03;0.93;;;12.40;99.90;;;;;;5021499;28;20190;-81
2022/03/22 08:39:10;;;;;;;1.73;1.50;;;12.10;99.90;;;;;;5019529;28;20182;-80
2022/03/22 08:41:36;;;;;;;1.50;0.73;;;12.10;99.90;;;;;;5023896;28;20192;-81
2022/03/22 08:44:02;;;;;;;0.80;0.80;;;11.80;99.90;;;;;;5020227;28;20214;-81
2022/03/22 08:46:28;;;;;;;1.33;1.23;;;11.80;99.90;;;;;;5017974;28;20189;-81
2022/03/22 08:48:55;;;;;;;1.27;1.17;;;12.10;99.90;;;;;;5019404;28;20182;-81
2022/03/22 08:51:24;;;;;;;1.33;1.23;;;12.40;99.90;;;;;;5019114;28;20268;-81
2022/03/22 08:53:50;;;;;;;2.70;2.27;;;12.40;99.90;;;;;;5025185;28;20203;-80
2022/03/22 08:56:15;;;;;;;1.13;1.03;;;12.40;99.90;;;;;;5024865;28;20193;-81
2022/03/22 08:58:41;;;;;;;0.57;0.57;;;12.70;99.90;;;;;;5019545;28;20682;-82
2022/03/22 09:01:07;;;;;;;4.93;3.10;;;12.40;99.90;;;;;;5021923;28;20265;-81
2022/03/22 09:03:35;;;;;;;0.60;0.60;;;12.30;99.90;;;;;;5019519;28;20296;-81
2022/03/22 09:06:11;;;;;;;3.63;1.30;;;12.50;99.90;;;;;;5017592;28;20193;-81
2022/03/22 09:08:40;;;;;;;2.10;1.17;;;12.70;99.90;;;;;;5017844;28;20236;-81
2022/03/22 09:11:07;;;;;;;0.90;0.90;;;12.70;99.90;;;;;;5016193;28;20231;-81
2022/03/22 09:13:33;;;;;;;1.40;1.30;;;12.80;99.90;;;;;;5021392;28;20224;-81
2022/03/22 09:15:59;;;;;;;3.17;2.43;;;12.70;99.90;;;;;;5019107;28;20184;-81
2022/03/22 09:18:26;;;;;;;3.80;2.00;;;12.70;99.90;;;;;;5021183;28;20278;-81
2022/03/22 09:20:52;;;;;;;1.30;0.97;;;12.60;99.90;;;;;;5021404;28;20179;-81
2022/03/22 09:23:18;;;;;;;1.00;1.00;;;12.70;99.90;;;;;;5021270;28;20321;-81
2022/03/22 09:25:45;;;;;;;2.30;0.90;;;12.90;99.90;;;;;;5028772;28;20246;-81
2022/03/22 09:28:11;;;;;;;1.37;1.27;;;12.90;99.90;;;;;;5019845;28;20193;-81
2022/03/22 09:30:38;;;;;;;1.77;0.83;;;12.70;99.90;;;;;;5018546;28;20212;-81
2022/03/22 09:33:07;;;;;;;3.73;1.77;;;13.10;99.90;;;;;;5018238;28;20612;-82
2022/03/22 09:35:33;;;;;;;1.37;1.27;;;13.40;99.90;;;;;;5018461;28;20236;-81
2022/03/22 09:37:59;;;;;;;1.27;1.17;;;13.60;99.90;;;;;;5021156;28;20735;-81
2022/03/22 09:40:27;;;;;;;1.30;1.20;;;13.30;99.90;;;;;;5023388;28;20274;-80
2022/03/22 09:42:54;;;;;;;2.80;1.27;;;12.90;99.90;;;;;;5022505;28;20322;-80
2022/03/22 09:45:27;;;;;;;1.13;1.03;;;13.40;99.90;;;;;;5022451;28;20185;-81
2022/03/22 09:47:53;;;;;;;1.60;0.90;;;13.90;99.90;;;;;;5021085;28;20189;-80
2022/03/22 09:50:20;;;;;;;0.70;0.70;;;13.70;99.90;;;;;;5017730;28;20206;-81
2022/03/22 09:52:46;;;;;;;4.80;1.97;;;13.70;99.90;;;;;;5021991;28;20234;-81
2022/03/22 09:55:15;;;;;;;3.30;1.93;;;13.30;99.90;;;;;;5024740;28;20185;-80
2022/03/22 09:57:40;;;;;;;5.90;1.10;;;12.90;99.90;;;;;;5018420;28;20649;-81
2022/03/22 10:00:08;;;;;;;3.13;1.33;;;13.70;99.90;;;;;;5018746;28;20181;-81
2022/03/22 10:02:35;;;;;;;1.13;0.97;;;13.70;99.90;;;;;;5016109;28;20622;-81
2022/03/22 10:05:01;;;;;;;2.10;1.53;;;13.40;99.90;;;;;;5020397;28;20201;-80
2022/03/22 10:07:29;;;;;;;2.73;1.27;;;13.80;99.90;;;;;;5017543;28;20193;-81
2022/03/22 10:10:02;;;;;;;1.20;1.00;;;13.10;99.90;;;;;;5014338;28;20271;-81
2022/03/22 10:12:32;;;;;;;3.00;2.40;;;13.30;99.90;;;;;;5016435;28;20199;-81
2022/03/22 10:15:15;;;;;;;2.33;1.83;;;12.90;99.90;;;;;;5010240;28;21103;-81
2022/03/22 10:17:43;;;;;;;2.73;1.97;;;13.80;99.90;;;;;;5015119;28;20191;-80
2022/03/22 10:20:19;;;;;;;4.00;3.60;;;14.30;99.90;;;;;;5014469;28;20210;-81
2022/03/22 10:22:45;;;;;;;5.67;1.53;;;14.20;99.90;;;;;;5017670;28;20236;-80
2022/03/22 10:25:10;;;;;;;2.70;2.27;;;14.60;99.90;;;;;;5019297;28;20181;-84
2022/03/22 10:27:37;;;;;;;1.53;1.30;;;14.70;99.90;;;;;;5018538;28;20192;-81
2022/03/22 10:30:06;;;;;;;2.77;1.63;;;14.80;99.90;;;;;;5018146;28;20286;-81
2022/03/22 10:32:37;;;;;;;2.07;1.47;;;14.50;99.90;;;;;;5018426;28;20196;-81
2022/03/22 10:35:19;;;;;;;1.60;1.50;;;14.80;99.90;;;;;;5015559;28;20194;-81
2022/03/22 10:37:46;;;;;;;1.83;1.23;;;14.60;99.90;;;;;;5018409;28;20353;-81
2022/03/22 10:40:41;;;;;;;1.87;1.57;;;14.50;99.90;;;;;;5018129;28;20197;-80
2022/03/22 10:43:20;;;;;;;3.10;2.67;;;14.20;99.90;;;;;;5026051;28;20217;-81
2022/03/22 10:45:59;;;;;;;2.63;1.37;;;14.40;99.90;;;;;;5019332;28;20204;-81
2022/03/22 10:48:34;;;;;;;1.83;1.73;;;14.60;99.90;;;;;;5018742;28;20209;-80
2022/03/22 10:51:02;;;;;;;0.80;0.80;;;15.00;99.90;;;;;;5016484;28;20235;-81
2022/03/22 10:53:29;;;;;;;1.73;1.43;;;14.50;99.90;;;;;;5014814;28;20301;-81
2022/03/22 10:55:57;;;;;;;1.10;1.00;;;14.90;99.90;;;;;;5013102;28;20216;-81
2022/03/22 10:58:28;;;;;;;1.03;1.03;;;15.00;99.90;;;;;;5014817;28;20605;-81
2022/03/22 11:00:55;;;;;;;1.20;1.07;;;15.30;99.90;;;;;;5013320;28;20573;-82
2022/03/22 11:03:22;;;;;;;1.33;1.23;;;15.50;99.90;;;;;;5013716;28;20214;-82
2022/03/22 11:05:53;;;;;;;1.87;1.70;;;15.30;99.90;;;;;;5023513;28;20213;-83
2022/03/22 11:08:23;;;;;;;2.60;2.17;;;15.50;99.90;;;;;;5025870;28;20185;-81
2022/03/22 11:10:50;;;;;;;2.70;1.63;;;15.60;99.90;;;;;;5020168;28;20218;-83
2022/03/22 11:13:16;;;;;;;1.90;0.87;;;15.50;99.90;;;;;;5023432;28;20955;-83
2022/03/22 11:15:45;;;;;;;2.67;2.47;;;15.50;99.90;;;;;;5024066;28;20190;-83
2022/03/22 11:18:12;;;;;;;1.47;1.00;;;15.70;99.90;;;;;;5021781;28;20186;-83
2022/03/22 11:20:51;;;;;;;1.87;1.37;;;15.50;99.90;;;;;;5024009;28;20190;-84
2022/03/22 11:23:23;;;;;;;2.70;1.63;;;15.70;99.90;;;;;;5023714;28;20209;-81
2022/03/22 11:25:49;;;;;;;2.07;1.37;;;15.40;99.90;;;;;;5024343;28;20191;-81
2022/03/22 11:28:19;;;;;;;1.97;1.87;;;14.80;99.90;;;;;;5024383;28;20224;-81
2022/03/22 11:30:46;;;;;;;2.13;1.57;;;15.50;99.90;;;;;;5024051;28;20566;-81
2022/03/22 11:36:21;;;;;;;3.00;1.23;;;15.40;99.90;;;;;;5030339;28;20221;-83
2022/03/22 11:38:53;;;;;;;1.17;1.07;;;16.00;99.90;;;;;;5026155;28;20185;-82
2022/03/22 11:44:44;;;;;;;1.13;0.87;;;16.50;99.90;;;;;;5025210;28;20284;-83
2022/03/22 11:47:17;;;;;;;2.67;1.30;;;16.40;99.90;;;;;;5013282;28;20237;-83
2022/03/22 11:50:00;;;;;;;1.67;1.57;;;16.40;99.90;;;;;;5025967;28;20272;-83
2022/03/22 11:52:35;;;;;;;0.83;0.80;;;16.80;99.90;;;;;;5025551;28;20562;-83
2022/03/22 11:55:09;;;;;;;2.67;1.50;;;16.10;99.90;;;;;;5026748;28;20824;-81
2022/03/22 11:57:56;;;;;;;2.07;1.63;;;16.00;99.90;;;;;;5024321;28;20676;-81
2022/03/22 12:00:51;;;;;;;2.90;2.40;;;16.00;99.90;;;;;;5022539;28;20187;-82
2022/03/22 12:03:19;;;;;;;1.10;1.00;;;15.60;99.90;;;;;;5025460;28;20207;-81
2022/03/22 12:05:45;;;;;;;3.50;1.70;;;16.40;99.90;;;;;;5023146;28;20229;-81
2022/03/22 12:08:16;;;;;;;4.20;1.53;;;16.80;99.90;;;;;;5021874;28;20187;-81
2022/03/22 12:10:50;;;;;;;1.93;1.37;;;16.80;99.90;;;;;;5022551;28;20958;-81
2022/03/22 12:13:17;;;;;;;1.27;1.03;;;16.60;99.90;;;;;;5021170;28;20577;-81
2022/03/22 12:15:43;;;;;;;1.50;1.40;;;16.90;99.90;;;;;;5021971;28;20186;-83
2022/03/22 12:18:10;;;;;;;1.10;1.10;;;17.10;99.90;;;;;;5018361;28;20206;-83
2022/03/22 12:20:36;;;;;;;1.70;1.40;;;17.10;99.90;;;;;;5024082;28;20194;-83
2022/03/22 12:23:03;;;;;;;1.40;1.27;;;17.00;99.90;;;;;;5025327;28;20348;-82
2022/03/22 12:25:35;;;;;;;2.10;1.20;;;17.00;99.90;;;;;;5025150;28;20274;-83
2022/03/22 12:28:09;;;;;;;1.70;0.67;;;16.60;99.90;;;;;;5023828;28;20187;-82
2022/03/22 12:30:42;;;;;;;1.57;1.23;;;17.10;99.90;;;;;;5020204;28;20862;-83
2022/03/22 12:33:11;;;;;;;3.60;1.37;;;17.40;99.90;;;;;;5023865;28;20206;-83
2022/03/22 12:35:38;;;;;;;1.73;1.50;;;17.70;99.90;;;;;;5023174;28;20204;-83
2022/03/22 12:38:04;;;;;;;1.20;1.03;;;16.40;99.90;;;;;;5024162;28;20248;-83
2022/03/22 12:40:31;;;;;;;1.50;1.20;;;16.30;99.90;;;;;;5025220;28;20664;-83
2022/03/22 12:42:57;;;;;;;1.47;0.83;;;16.80;99.90;;;;;;5021948;28;20675;-83
2022/03/22 12:45:27;;;;;;;2.87;1.03;;;17.00;99.90;;;;;;5024493;28;20198;-83
2022/03/22 12:47:53;;;;;;;0.90;0.90;;;17.40;99.90;;;;;;5029367;28;20210;-83
2022/03/22 12:50:20;;;;;;;2.87;1.70;;;17.70;99.90;;;;;;5028160;28;20221;-83
2022/03/22 12:52:46;;;;;;;1.70;1.40;;;17.40;99.90;;;;;;5021710;28;20194;-83
2022/03/22 12:55:14;;;;;;;1.23;1.17;;;17.10;99.90;;;;;;5021736;28;20655;-83
2022/03/22 12:57:46;;;;;;;1.03;0.83;;;17.60;99.90;;;;;;5020058;28;20196;-83
2022/03/22 13:00:30;;;;;;;1.00;0.70;;;17.60;99.90;;;;;;5019840;28;20193;-84
2022/03/22 13:03:04;;;;;;;1.60;1.50;;;18.00;99.90;;;;;;5025165;28;20209;-83
2022/03/22 13:05:30;;;;;;;1.53;1.43;;;18.30;99.90;;;;;;5028096;28;20198;-83
2022/03/22 13:07:58;;;;;;;2.37;2.17;;;17.90;99.90;;;;;;5025050;28;20186;-83
2022/03/22 13:13:22;;;;;;;0.90;0.90;;;17.80;99.90;;;;;;5004292;28;20221;-83
2022/03/22 13:15:52;;;;;;;2.17;1.10;;;18.10;99.90;;;;;;5026046;28;20556;-83
2022/03/22 13:18:19;;;;;;;2.43;1.77;;;18.10;99.90;;;;;;5025929;28;20209;-83
2022/03/22 13:20:45;;;;;;;2.97;2.50;;;17.40;99.90;;;;;;5025572;28;20616;-83
2022/03/22 13:23:15;;;;;;;2.83;1.40;;;17.40;99.90;;;;;;5024709;28;20221;-83
2022/03/22 13:25:42;;;;;;;1.80;1.60;;;17.20;99.90;;;;;;5025442;28;20960;-83
2022/03/22 13:28:12;;;;;;;1.93;1.73;;;16.90;99.90;;;;;;5025101;28;20197;-83
2022/03/22 13:30:42;;;;;;;2.63;1.30;;;16.60;99.90;;;;;;5026218;28;20198;-83
2022/03/22 13:33:11;;;;;;;2.10;1.73;;;16.80;99.90;;;;;;5026299;28;20236;-83
2022/03/22 13:35:38;;;;;;;2.67;1.10;;;17.40;99.90;;;;;;5025843;28;20181;-83
2022/03/22 13:38:08;;;;;;;1.43;1.30;;;17.60;99.90;;;;;;5026289;28;20214;-83